Portada
METAR-TAF:

METAR-TAF

Aeroports :

Shell Mera, Equador

latitud: 01-30-19S, longitud: 078-03-46W, altitud: 1056 m

Observació

L'informe es va fer fa 3 hores i 12 minuts, a les 18:00 UTC
Vent calma
Temperatura 20°C
Humitat 94%
Pressió 1019 hPa
Visibilitat: 4000 m
Escasses núvols a una alçada de 1000 ft
Cel ennuvolat a una alçada de 1600 ft
Cel cobert a una alçada de 7000 ft
plugim

METAR: SESM 281800Z 00000KT 4000 -DZ FEW010 BKN016 OVC070 20/19 Q1019 RMK A3010

Hora: 16:12 (21:12 UTC)


TAF: manca

Observacions i pronòstics meteorològics de més de 4000 aeroports (METAR i TAF).

Les estacions disponibles són els punts grocs i vermells al mapa.

Posi el ratolí al punt desitjat per veure el nom de l'estació.

Feu clic per veure les observacions i els pronòstics meteorològics.

Per canviar el mapa: feu clic els botons verds amb una creu de color negre per apropar; al botó verd amb un guió per allunyar la imatge; o en les fletxes verdes per a mapes adjacents.


METAR-TAF: